sensor_id;sensor_type;location;lat;lon;timestamp;P1;durP1;ratioP1;P2;durP2;ratioP2
6348;SDS011;3207;42.648;23.406;2023-03-14T00:01:18;7.68;;;4.30;;
6348;SDS011;3207;42.648;23.406;2023-03-14T00:03:46;5.30;;;4.10;;
6348;SDS011;3207;42.648;23.406;2023-03-14T00:06:13;4.72;;;4.18;;
6348;SDS011;3207;42.648;23.406;2023-03-14T00:08:40;5.55;;;3.72;;
6348;SDS011;3207;42.648;23.406;2023-03-14T00:11:07;5.78;;;3.63;;
6348;SDS011;3207;42.648;23.406;2023-03-14T00:13:35;6.13;;;3.50;;
6348;SDS011;3207;42.648;23.406;2023-03-14T00:16:02;5.80;;;3.20;;
6348;SDS011;3207;42.648;23.406;2023-03-14T00:18:29;4.22;;;3.15;;
6348;SDS011;3207;42.648;23.406;2023-03-14T00:20:57;4.53;;;2.97;;
6348;SDS011;3207;42.648;23.406;2023-03-14T00:23:23;5.50;;;3.42;;
6348;SDS011;3207;42.648;23.406;2023-03-14T00:25:50;4.40;;;3.00;;
6348;SDS011;3207;42.648;23.406;2023-03-14T00:28:16;4.63;;;3.63;;
6348;SDS011;3207;42.648;23.406;2023-03-14T00:30:44;5.72;;;3.65;;
6348;SDS011;3207;42.648;23.406;2023-03-14T00:33:11;3.47;;;2.83;;
6348;SDS011;3207;42.648;23.406;2023-03-14T00:35:37;7.82;;;4.03;;
6348;SDS011;3207;42.648;23.406;2023-03-14T00:38:04;5.60;;;3.40;;
6348;SDS011;3207;42.648;23.406;2023-03-14T00:40:30;6.40;;;3.72;;
6348;SDS011;3207;42.648;23.406;2023-03-14T00:42:57;4.70;;;3.45;;
6348;SDS011;3207;42.648;23.406;2023-03-14T00:45:23;5.40;;;3.10;;
6348;SDS011;3207;42.648;23.406;2023-03-14T00:47:51;5.38;;;2.83;;
6348;SDS011;3207;42.648;23.406;2023-03-14T00:50:18;3.67;;;2.70;;
6348;SDS011;3207;42.648;23.406;2023-03-14T00:52:44;3.00;;;2.30;;
6348;SDS011;3207;42.648;23.406;2023-03-14T00:55:12;6.30;;;2.53;;
6348;SDS011;3207;42.648;23.406;2023-03-14T00:57:39;2.60;;;2.20;;
6348;SDS011;3207;42.648;23.406;2023-03-14T01:00:06;4.47;;;2.22;;
6348;SDS011;3207;42.648;23.406;2023-03-14T01:02:36;3.05;;;2.20;;
6348;SDS011;3207;42.648;23.406;2023-03-14T01:05:04;5.68;;;2.58;;
6348;SDS011;3207;42.648;23.406;2023-03-14T01:07:32;3.33;;;2.50;;
6348;SDS011;3207;42.648;23.406;2023-03-14T01:09:59;3.30;;;2.03;;
6348;SDS011;3207;42.648;23.406;2023-03-14T01:12:25;4.07;;;2.83;;
6348;SDS011;3207;42.648;23.406;2023-03-14T01:14:53;4.40;;;2.38;;
6348;SDS011;3207;42.648;23.406;2023-03-14T01:17:19;3.45;;;2.00;;
6348;SDS011;3207;42.648;23.406;2023-03-14T01:19:46;3.03;;;2.17;;
6348;SDS011;3207;42.648;23.406;2023-03-14T01:22:14;3.55;;;2.03;;
6348;SDS011;3207;42.648;23.406;2023-03-14T01:24:41;4.40;;;2.17;;
6348;SDS011;3207;42.648;23.406;2023-03-14T01:27:07;2.63;;;1.77;;
6348;SDS011;3207;42.648;23.406;2023-03-14T01:29:34;2.30;;;2.10;;
6348;SDS011;3207;42.648;23.406;2023-03-14T01:32:00;2.25;;;1.95;;
6348;SDS011;3207;42.648;23.406;2023-03-14T01:34:27;2.30;;;1.95;;
6348;SDS011;3207;42.648;23.406;2023-03-14T01:36:53;4.72;;;2.15;;
6348;SDS011;3207;42.648;23.406;2023-03-14T01:39:21;2.25;;;1.92;;
6348;SDS011;3207;42.648;23.406;2023-03-14T01:41:48;3.58;;;2.42;;
6348;SDS011;3207;42.648;23.406;2023-03-14T01:44:14;4.50;;;2.35;;
6348;SDS011;3207;42.648;23.406;2023-03-14T01:46:41;2.78;;;2.13;;
6348;SDS011;3207;42.648;23.406;2023-03-14T01:49:12;2.88;;;1.98;;
6348;SDS011;3207;42.648;23.406;2023-03-14T01:51:44;4.80;;;2.65;;
6348;SDS011;3207;42.648;23.406;2023-03-14T01:54:13;2.38;;;1.60;;
6348;SDS011;3207;42.648;23.406;2023-03-14T01:56:42;5.32;;;2.05;;
6348;SDS011;3207;42.648;23.406;2023-03-14T01:59:10;2.70;;;1.95;;
6348;SDS011;3207;42.648;23.406;2023-03-14T02:01:37;5.20;;;2.00;;
6348;SDS011;3207;42.648;23.406;2023-03-14T02:04:04;2.78;;;1.48;;
6348;SDS011;3207;42.648;23.406;2023-03-14T02:06:33;4.30;;;1.77;;
6348;SDS011;3207;42.648;23.406;2023-03-14T02:09:02;3.15;;;1.80;;
6348;SDS011;3207;42.648;23.406;2023-03-14T02:11:29;2.60;;;1.92;;
6348;SDS011;3207;42.648;23.406;2023-03-14T02:13:57;3.53;;;1.95;;
6348;SDS011;3207;42.648;23.406;2023-03-14T02:16:25;3.67;;;1.85;;
6348;SDS011;3207;42.648;23.406;2023-03-14T02:18:51;2.78;;;1.60;;
6348;SDS011;3207;42.648;23.406;2023-03-14T02:21:18;3.17;;;1.85;;
6348;SDS011;3207;42.648;23.406;2023-03-14T02:23:48;1.52;;;1.20;;
6348;SDS011;3207;42.648;23.406;2023-03-14T02:26:19;1.50;;;1.20;;
6348;SDS011;3207;42.648;23.406;2023-03-14T02:28:49;5.05;;;1.83;;
6348;SDS011;3207;42.648;23.406;2023-03-14T02:31:16;1.92;;;1.30;;
6348;SDS011;3207;42.648;23.406;2023-03-14T02:33:43;1.85;;;1.42;;
6348;SDS011;3207;42.648;23.406;2023-03-14T02:36:10;1.58;;;1.45;;
6348;SDS011;3207;42.648;23.406;2023-03-14T02:38:39;2.45;;;1.77;;
6348;SDS011;3207;42.648;23.406;2023-03-14T02:41:07;1.30;;;1.20;;
6348;SDS011;3207;42.648;23.406;2023-03-14T02:43:34;1.83;;;1.50;;
6348;SDS011;3207;42.648;23.406;2023-03-14T02:46:02;2.92;;;1.60;;
6348;SDS011;3207;42.648;23.406;2023-03-14T02:48:30;2.20;;;1.40;;
6348;SDS011;3207;42.648;23.406;2023-03-14T02:50:58;3.08;;;1.17;;
6348;SDS011;3207;42.648;23.406;2023-03-14T02:53:26;2.85;;;1.35;;
6348;SDS011;3207;42.648;23.406;2023-03-14T02:55:54;2.47;;;1.40;;
6348;SDS011;3207;42.648;23.406;2023-03-14T02:58:20;2.65;;;1.45;;
6348;SDS011;3207;42.648;23.406;2023-03-14T03:00:47;3.53;;;1.27;;
6348;SDS011;3207;42.648;23.406;2023-03-14T03:03:15;1.27;;;1.17;;
6348;SDS011;3207;42.648;23.406;2023-03-14T03:05:42;2.83;;;1.52;;
6348;SDS011;3207;42.648;23.406;2023-03-14T03:08:10;3.20;;;1.48;;
6348;SDS011;3207;42.648;23.406;2023-03-14T03:10:36;1.40;;;1.30;;
6348;SDS011;3207;42.648;23.406;2023-03-14T03:13:03;3.88;;;1.20;;
6348;SDS011;3207;42.648;23.406;2023-03-14T03:15:30;1.48;;;1.33;;
6348;SDS011;3207;42.648;23.406;2023-03-14T03:17:57;1.60;;;1.38;;
6348;SDS011;3207;42.648;23.406;2023-03-14T03:20:25;2.95;;;1.65;;
6348;SDS011;3207;42.648;23.406;2023-03-14T03:22:51;2.55;;;1.63;;
6348;SDS011;3207;42.648;23.406;2023-03-14T03:25:18;2.88;;;1.92;;
6348;SDS011;3207;42.648;23.406;2023-03-14T03:27:44;3.67;;;2.05;;
6348;SDS011;3207;42.648;23.406;2023-03-14T03:30:11;2.60;;;1.67;;
6348;SDS011;3207;42.648;23.406;2023-03-14T03:32:38;3.20;;;1.92;;
6348;SDS011;3207;42.648;23.406;2023-03-14T03:35:05;3.03;;;1.90;;
6348;SDS011;3207;42.648;23.406;2023-03-14T03:37:33;1.88;;;1.77;;
6348;SDS011;3207;42.648;23.406;2023-03-14T03:40:00;1.95;;;1.45;;
6348;SDS011;3207;42.648;23.406;2023-03-14T03:42:28;2.47;;;2.03;;
6348;SDS011;3207;42.648;23.406;2023-03-14T03:44:55;2.90;;;1.55;;
6348;SDS011;3207;42.648;23.406;2023-03-14T03:47:21;3.15;;;2.00;;
6348;SDS011;3207;42.648;23.406;2023-03-14T03:49:48;5.90;;;1.60;;
6348;SDS011;3207;42.648;23.406;2023-03-14T03:52:14;1.77;;;1.48;;
6348;SDS011;3207;42.648;23.406;2023-03-14T03:54:42;2.35;;;1.80;;
6348;SDS011;3207;42.648;23.406;2023-03-14T03:57:09;2.97;;;1.92;;
6348;SDS011;3207;42.648;23.406;2023-03-14T03:59:35;2.28;;;1.40;;
6348;SDS011;3207;42.648;23.406;2023-03-14T04:02:03;4.72;;;1.65;;
6348;SDS011;3207;42.648;23.406;2023-03-14T04:04:30;3.20;;;1.80;;
6348;SDS011;3207;42.648;23.406;2023-03-14T04:06:57;3.58;;;1.90;;
6348;SDS011;3207;42.648;23.406;2023-03-14T04:09:23;3.53;;;1.58;;
6348;SDS011;3207;42.648;23.406;2023-03-14T04:11:51;5.30;;;2.05;;
6348;SDS011;3207;42.648;23.406;2023-03-14T04:14:18;2.47;;;1.63;;
6348;SDS011;3207;42.648;23.406;2023-03-14T04:16:44;2.88;;;1.77;;
6348;SDS011;3207;42.648;23.406;2023-03-14T04:19:11;3.97;;;1.90;;
6348;SDS011;3207;42.648;23.406;2023-03-14T04:21:37;2.58;;;1.58;;
6348;SDS011;3207;42.648;23.406;2023-03-14T04:24:05;2.13;;;1.38;;
6348;SDS011;3207;42.648;23.406;2023-03-14T04:26:32;6.32;;;2.08;;
6348;SDS011;3207;42.648;23.406;2023-03-14T04:29:00;3.53;;;1.35;;
6348;SDS011;3207;42.648;23.406;2023-03-14T04:31:26;3.70;;;1.73;;
6348;SDS011;3207;42.648;23.406;2023-03-14T04:33:53;2.63;;;1.60;;
6348;SDS011;3207;42.648;23.406;2023-03-14T04:36:19;3.22;;;1.50;;
6348;SDS011;3207;42.648;23.406;2023-03-14T04:38:46;3.97;;;1.65;;
6348;SDS011;3207;42.648;23.406;2023-03-14T04:41:13;3.70;;;1.85;;
6348;SDS011;3207;42.648;23.406;2023-03-14T04:43:39;3.20;;;1.90;;
6348;SDS011;3207;42.648;23.406;2023-03-14T04:46:07;1.95;;;1.73;;
6348;SDS011;3207;42.648;23.406;2023-03-14T04:48:34;4.63;;;2.15;;
6348;SDS011;3207;42.648;23.406;2023-03-14T04:51:00;3.83;;;2.10;;
6348;SDS011;3207;42.648;23.406;2023-03-14T04:53:27;3.95;;;2.40;;
6348;SDS011;3207;42.648;23.406;2023-03-14T04:55:55;9.77;;;2.45;;
6348;SDS011;3207;42.648;23.406;2023-03-14T04:58:22;8.77;;;3.28;;
6348;SDS011;3207;42.648;23.406;2023-03-14T05:00:48;2.92;;;2.40;;
6348;SDS011;3207;42.648;23.406;2023-03-14T05:03:17;3.47;;;2.28;;
6348;SDS011;3207;42.648;23.406;2023-03-14T05:05:43;4.15;;;2.55;;
6348;SDS011;3207;42.648;23.406;2023-03-14T05:08:10;6.63;;;2.17;;
6348;SDS011;3207;42.648;23.406;2023-03-14T05:10:37;6.55;;;2.72;;
6348;SDS011;3207;42.648;23.406;2023-03-14T05:13:03;4.65;;;2.38;;
6348;SDS011;3207;42.648;23.406;2023-03-14T05:15:30;4.03;;;1.92;;
6348;SDS011;3207;42.648;23.406;2023-03-14T05:17:56;7.20;;;2.38;;
6348;SDS011;3207;42.648;23.406;2023-03-14T05:20:24;5.15;;;2.83;;
6348;SDS011;3207;42.648;23.406;2023-03-14T05:22:51;3.75;;;2.15;;
6348;SDS011;3207;42.648;23.406;2023-03-14T05:25:18;3.28;;;2.53;;
6348;SDS011;3207;42.648;23.406;2023-03-14T05:27:44;2.33;;;1.80;;
6348;SDS011;3207;42.648;23.406;2023-03-14T05:30:11;3.47;;;2.03;;
6348;SDS011;3207;42.648;23.406;2023-03-14T05:32:38;4.90;;;2.28;;
6348;SDS011;3207;42.648;23.406;2023-03-14T05:35:05;2.28;;;2.08;;
6348;SDS011;3207;42.648;23.406;2023-03-14T05:37:33;5.03;;;2.13;;
6348;SDS011;3207;42.648;23.406;2023-03-14T05:40:00;2.17;;;1.80;;
6348;SDS011;3207;42.648;23.406;2023-03-14T05:42:27;3.33;;;2.38;;
6348;SDS011;3207;42.648;23.406;2023-03-14T05:44:54;4.85;;;2.53;;
6348;SDS011;3207;42.648;23.406;2023-03-14T05:47:20;6.93;;;2.70;;
6348;SDS011;3207;42.648;23.406;2023-03-14T05:49:47;3.88;;;2.08;;
6348;SDS011;3207;42.648;23.406;2023-03-14T05:52:14;3.70;;;2.47;;
6348;SDS011;3207;42.648;23.406;2023-03-14T05:54:42;3.33;;;2.42;;
6348;SDS011;3207;42.648;23.406;2023-03-14T05:57:09;12.27;;;8.57;;
6348;SDS011;3207;42.648;23.406;2023-03-14T05:59:36;10.95;;;4.55;;
6348;SDS011;3207;42.648;23.406;2023-03-14T06:02:02;8.90;;;3.58;;
6348;SDS011;3207;42.648;23.406;2023-03-14T06:04:29;5.05;;;3.13;;
6348;SDS011;3207;42.648;23.406;2023-03-14T06:06:56;6.07;;;3.50;;
6348;SDS011;3207;42.648;23.406;2023-03-14T06:09:22;6.32;;;4.20;;
6348;SDS011;3207;42.648;23.406;2023-03-14T06:11:50;7.28;;;5.50;;
6348;SDS011;3207;42.648;23.406;2023-03-14T06:14:17;7.05;;;2.90;;
6348;SDS011;3207;42.648;23.406;2023-03-14T06:16:44;5.68;;;3.22;;
6348;SDS011;3207;42.648;23.406;2023-03-14T06:19:10;2.85;;;2.30;;
6348;SDS011;3207;42.648;23.406;2023-03-14T06:21:37;5.25;;;2.58;;
6348;SDS011;3207;42.648;23.406;2023-03-14T06:24:03;5.28;;;3.83;;
6348;SDS011;3207;42.648;23.406;2023-03-14T06:26:30;6.47;;;3.45;;
6348;SDS011;3207;42.648;23.406;2023-03-14T06:28:58;7.95;;;4.95;;
6348;SDS011;3207;42.648;23.406;2023-03-14T06:31:28;9.63;;;5.32;;
6348;SDS011;3207;42.648;23.406;2023-03-14T06:33:55;7.90;;;4.80;;
6348;SDS011;3207;42.648;23.406;2023-03-14T06:36:22;5.45;;;3.78;;
6348;SDS011;3207;42.648;23.406;2023-03-14T06:38:49;4.38;;;2.75;;
6348;SDS011;3207;42.648;23.406;2023-03-14T06:41:16;6.10;;;3.35;;
6348;SDS011;3207;42.648;23.406;2023-03-14T06:43:43;8.52;;;2.83;;
6348;SDS011;3207;42.648;23.406;2023-03-14T06:46:11;4.15;;;2.67;;
6348;SDS011;3207;42.648;23.406;2023-03-14T06:48:38;6.53;;;3.00;;
6348;SDS011;3207;42.648;23.406;2023-03-14T06:51:05;4.88;;;2.90;;
6348;SDS011;3207;42.648;23.406;2023-03-14T06:53:32;4.97;;;3.38;;
6348;SDS011;3207;42.648;23.406;2023-03-14T06:55:59;7.05;;;3.50;;
6348;SDS011;3207;42.648;23.406;2023-03-14T06:58:26;3.45;;;3.15;;
6348;SDS011;3207;42.648;23.406;2023-03-14T07:00:53;4.30;;;3.30;;
6348;SDS011;3207;42.648;23.406;2023-03-14T07:03:23;6.55;;;3.72;;
6348;SDS011;3207;42.648;23.406;2023-03-14T07:05:49;7.75;;;3.80;;
6348;SDS011;3207;42.648;23.406;2023-03-14T07:08:16;5.03;;;4.05;;
6348;SDS011;3207;42.648;23.406;2023-03-14T07:10:43;5.88;;;3.90;;
6348;SDS011;3207;42.648;23.406;2023-03-14T07:13:10;5.95;;;4.18;;
6348;SDS011;3207;42.648;23.406;2023-03-14T07:15:37;5.07;;;3.92;;
6348;SDS011;3207;42.648;23.406;2023-03-14T07:18:04;4.88;;;3.53;;
6348;SDS011;3207;42.648;23.406;2023-03-14T07:20:32;3.65;;;3.35;;
6348;SDS011;3207;42.648;23.406;2023-03-14T07:22:59;4.05;;;3.30;;
6348;SDS011;3207;42.648;23.406;2023-03-14T07:25:28;8.20;;;3.33;;
6348;SDS011;3207;42.648;23.406;2023-03-14T07:27:55;4.05;;;3.35;;
6348;SDS011;3207;42.648;23.406;2023-03-14T07:30:21;3.90;;;3.25;;
6348;SDS011;3207;42.648;23.406;2023-03-14T07:32:48;3.63;;;2.85;;
6348;SDS011;3207;42.648;23.406;2023-03-14T07:35:15;3.13;;;2.80;;
6348;SDS011;3207;42.648;23.406;2023-03-14T07:37:44;3.33;;;2.83;;
6348;SDS011;3207;42.648;23.406;2023-03-14T07:40:11;3.95;;;3.20;;
6348;SDS011;3207;42.648;23.406;2023-03-14T07:42:40;4.15;;;3.15;;
6348;SDS011;3207;42.648;23.406;2023-03-14T07:45:07;3.78;;;3.33;;
6348;SDS011;3207;42.648;23.406;2023-03-14T07:47:34;3.50;;;2.90;;
6348;SDS011;3207;42.648;23.406;2023-03-14T07:50:01;4.45;;;3.03;;
6348;SDS011;3207;42.648;23.406;2023-03-14T07:52:28;2.83;;;2.60;;
6348;SDS011;3207;42.648;23.406;2023-03-14T07:54:56;5.00;;;2.85;;
6348;SDS011;3207;42.648;23.406;2023-03-14T07:57:23;4.00;;;3.00;;
6348;SDS011;3207;42.648;23.406;2023-03-14T07:59:50;2.95;;;2.75;;
6348;SDS011;3207;42.648;23.406;2023-03-14T08:02:17;8.15;;;3.53;;
6348;SDS011;3207;42.648;23.406;2023-03-14T08:04:47;4.75;;;2.97;;
6348;SDS011;3207;42.648;23.406;2023-03-14T08:07:14;4.13;;;3.10;;
6348;SDS011;3207;42.648;23.406;2023-03-14T08:09:41;4.15;;;2.85;;
6348;SDS011;3207;42.648;23.406;2023-03-14T08:12:09;6.03;;;2.53;;
6348;SDS011;3207;42.648;23.406;2023-03-14T08:14:36;3.38;;;3.08;;
6348;SDS011;3207;42.648;23.406;2023-03-14T08:17:03;4.45;;;2.40;;
6348;SDS011;3207;42.648;23.406;2023-03-14T08:19:33;2.65;;;2.40;;
6348;SDS011;3207;42.648;23.406;2023-03-14T08:22:00;4.88;;;2.80;;
6348;SDS011;3207;42.648;23.406;2023-03-14T08:24:27;2.50;;;2.28;;
6348;SDS011;3207;42.648;23.406;2023-03-14T08:26:54;3.00;;;2.53;;
6348;SDS011;3207;42.648;23.406;2023-03-14T08:29:22;2.33;;;2.10;;
6348;SDS011;3207;42.648;23.406;2023-03-14T08:31:49;2.28;;;1.90;;
6348;SDS011;3207;42.648;23.406;2023-03-14T08:34:16;2.20;;;1.98;;
6348;SDS011;3207;42.648;23.406;2023-03-14T08:36:43;2.25;;;1.98;;
6348;SDS011;3207;42.648;23.406;2023-03-14T08:39:11;4.20;;;2.28;;
6348;SDS011;3207;42.648;23.406;2023-03-14T08:41:38;2.80;;;2.35;;
6348;SDS011;3207;42.648;23.406;2023-03-14T08:44:08;3.58;;;2.50;;
6348;SDS011;3207;42.648;23.406;2023-03-14T08:46:36;3.47;;;2.45;;
6348;SDS011;3207;42.648;23.406;2023-03-14T08:49:03;3.78;;;2.03;;
6348;SDS011;3207;42.648;23.406;2023-03-14T08:51:30;3.60;;;2.42;;
6348;SDS011;3207;42.648;23.406;2023-03-14T08:53:57;4.25;;;2.97;;
6348;SDS011;3207;42.648;23.406;2023-03-14T08:56:24;2.13;;;1.95;;
6348;SDS011;3207;42.648;23.406;2023-03-14T08:58:50;3.13;;;2.42;;
6348;SDS011;3207;42.648;23.406;2023-03-14T09:01:17;3.10;;;2.38;;
6348;SDS011;3207;42.648;23.406;2023-03-14T09:03:47;4.30;;;2.47;;
6348;SDS011;3207;42.648;23.406;2023-03-14T09:06:14;3.83;;;2.30;;
6348;SDS011;3207;42.648;23.406;2023-03-14T09:08:43;7.38;;;2.20;;
6348;SDS011;3207;42.648;23.406;2023-03-14T09:11:10;3.28;;;2.33;;
6348;SDS011;3207;42.648;23.406;2023-03-14T09:13:37;3.33;;;2.17;;
6348;SDS011;3207;42.648;23.406;2023-03-14T09:16:04;3.78;;;1.88;;
6348;SDS011;3207;42.648;23.406;2023-03-14T09:18:32;2.45;;;1.80;;
6348;SDS011;3207;42.648;23.406;2023-03-14T09:21:00;5.30;;;2.20;;
6348;SDS011;3207;42.648;23.406;2023-03-14T09:23:27;3.13;;;1.98;;
6348;SDS011;3207;42.648;23.406;2023-03-14T09:25:55;2.25;;;2.00;;
6348;SDS011;3207;42.648;23.406;2023-03-14T09:28:21;2.95;;;2.28;;
6348;SDS011;3207;42.648;23.406;2023-03-14T09:30:48;4.53;;;2.30;;
6348;SDS011;3207;42.648;23.406;2023-03-14T09:33:15;2.97;;;2.67;;
6348;SDS011;3207;42.648;23.406;2023-03-14T09:35:42;3.33;;;2.63;;
6348;SDS011;3207;42.648;23.406;2023-03-14T09:38:11;2.90;;;2.45;;
6348;SDS011;3207;42.648;23.406;2023-03-14T09:40:38;2.65;;;2.33;;
6348;SDS011;3207;42.648;23.406;2023-03-14T09:43:05;4.80;;;2.22;;
6348;SDS011;3207;42.648;23.406;2023-03-14T09:45:33;3.17;;;2.20;;
6348;SDS011;3207;42.648;23.406;2023-03-14T09:48:03;3.28;;;2.33;;
6348;SDS011;3207;42.648;23.406;2023-03-14T09:50:33;2.45;;;2.25;;
6348;SDS011;3207;42.648;23.406;2023-03-14T09:53:05;2.63;;;2.15;;
6348;SDS011;3207;42.648;23.406;2023-03-14T09:55:39;3.83;;;2.15;;
6348;SDS011;3207;42.648;23.406;2023-03-14T09:58:09;3.72;;;2.33;;
6348;SDS011;3207;42.648;23.406;2023-03-14T10:00:38;2.55;;;2.22;;
6348;SDS011;3207;42.648;23.406;2023-03-14T10:03:14;2.38;;;2.17;;
6348;SDS011;3207;42.648;23.406;2023-03-14T10:05:48;5.13;;;2.90;;
6348;SDS011;3207;42.648;23.406;2023-03-14T10:08:15;2.60;;;2.05;;
6348;SDS011;3207;42.648;23.406;2023-03-14T10:10:43;2.70;;;1.83;;
6348;SDS011;3207;42.648;23.406;2023-03-14T10:13:13;3.58;;;2.50;;
6348;SDS011;3207;42.648;23.406;2023-03-14T10:15:43;3.83;;;2.42;;
6348;SDS011;3207;42.648;23.406;2023-03-14T10:18:14;5.82;;;2.15;;
6348;SDS011;3207;42.648;23.406;2023-03-14T10:20:42;3.85;;;2.10;;
6348;SDS011;3207;42.648;23.406;2023-03-14T10:23:18;3.35;;;2.45;;
6348;SDS011;3207;42.648;23.406;2023-03-14T10:26:00;2.25;;;2.05;;
6348;SDS011;3207;42.648;23.406;2023-03-14T10:28:31;2.15;;;1.90;;
6348;SDS011;3207;42.648;23.406;2023-03-14T10:31:00;3.83;;;2.38;;
6348;SDS011;3207;42.648;23.406;2023-03-14T10:33:27;2.72;;;2.30;;
6348;SDS011;3207;42.648;23.406;2023-03-14T10:35:57;3.20;;;3.00;;
6348;SDS011;3207;42.648;23.406;2023-03-14T10:38:26;2.15;;;2.03;;
6348;SDS011;3207;42.648;23.406;2023-03-14T10:40:54;3.33;;;2.10;;
6348;SDS011;3207;42.648;23.406;2023-03-14T10:43:25;2.33;;;2.08;;
6348;SDS011;3207;42.648;23.406;2023-03-14T10:45:54;2.38;;;2.17;;
6348;SDS011;3207;42.648;23.406;2023-03-14T10:48:25;2.47;;;2.25;;
6348;SDS011;3207;42.648;23.406;2023-03-14T10:50:58;1.70;;;1.60;;
6348;SDS011;3207;42.648;23.406;2023-03-14T10:53:33;2.65;;;1.80;;
6348;SDS011;3207;42.648;23.406;2023-03-14T10:56:05;2.10;;;1.95;;
6348;SDS011;3207;42.648;23.406;2023-03-14T10:58:35;2.25;;;2.05;;
6348;SDS011;3207;42.648;23.406;2023-03-14T11:01:12;2.20;;;2.00;;
6348;SDS011;3207;42.648;23.406;2023-03-14T11:03:52;2.30;;;1.92;;
6348;SDS011;3207;42.648;23.406;2023-03-14T11:06:23;4.40;;;2.85;;
6348;SDS011;3207;42.648;23.406;2023-03-14T11:08:57;2.03;;;1.90;;
6348;SDS011;3207;42.648;23.406;2023-03-14T11:11:32;2.22;;;2.03;;
6348;SDS011;3207;42.648;23.406;2023-03-14T11:14:07;2.30;;;2.10;;
6348;SDS011;3207;42.648;23.406;2023-03-14T11:16:46;3.25;;;2.42;;
6348;SDS011;3207;42.648;23.406;2023-03-14T11:19:31;1.95;;;1.85;;
6348;SDS011;3207;42.648;23.406;2023-03-14T11:22:17;3.05;;;1.98;;
6348;SDS011;3207;42.648;23.406;2023-03-14T11:25:07;1.98;;;1.88;;
6348;SDS011;3207;42.648;23.406;2023-03-14T11:27:44;6.30;;;1.73;;
6348;SDS011;3207;42.648;23.406;2023-03-14T11:30:17;2.50;;;1.98;;
6348;SDS011;3207;42.648;23.406;2023-03-14T11:32:50;3.72;;;1.85;;
6348;SDS011;3207;42.648;23.406;2023-03-14T11:35:22;1.88;;;1.77;;
6348;SDS011;3207;42.648;23.406;2023-03-14T11:37:55;2.33;;;2.13;;
6348;SDS011;3207;42.648;23.406;2023-03-14T11:40:29;2.60;;;2.40;;
6348;SDS011;3207;42.648;23.406;2023-03-14T11:43:00;2.85;;;2.25;;
6348;SDS011;3207;42.648;23.406;2023-03-14T11:45:34;2.28;;;2.08;;
6348;SDS011;3207;42.648;23.406;2023-03-14T11:48:09;2.67;;;2.03;;
6348;SDS011;3207;42.648;23.406;2023-03-14T11:50:43;2.55;;;2.35;;
6348;SDS011;3207;42.648;23.406;2023-03-14T11:53:13;2.40;;;2.17;;
6348;SDS011;3207;42.648;23.406;2023-03-14T11:55:44;6.05;;;2.97;;
6348;SDS011;3207;42.648;23.406;2023-03-14T11:58:14;5.10;;;2.25;;
6348;SDS011;3207;42.648;23.406;2023-03-14T12:00:46;2.60;;;2.10;;
6348;SDS011;3207;42.648;23.406;2023-03-14T12:03:17;2.78;;;2.22;;
6348;SDS011;3207;42.648;23.406;2023-03-14T12:05:52;3.17;;;2.00;;
6348;SDS011;3207;42.648;23.406;2023-03-14T12:08:33;2.92;;;2.58;;
6348;SDS011;3207;42.648;23.406;2023-03-14T12:11:08;4.75;;;2.47;;
6348;SDS011;3207;42.648;23.406;2023-03-14T12:13:38;4.10;;;2.83;;
6348;SDS011;3207;42.648;23.406;2023-03-14T12:16:10;7.63;;;3.38;;
6348;SDS011;3207;42.648;23.406;2023-03-14T12:18:52;4.63;;;2.65;;
6348;SDS011;3207;42.648;23.406;2023-03-14T12:21:20;4.25;;;2.33;;
6348;SDS011;3207;42.648;23.406;2023-03-14T12:24:14;5.75;;;2.83;;
6348;SDS011;3207;42.648;23.406;2023-03-14T12:26:46;4.25;;;2.17;;
6348;SDS011;3207;42.648;23.406;2023-03-14T12:29:16;4.05;;;2.80;;
6348;SDS011;3207;42.648;23.406;2023-03-14T12:31:45;3.38;;;2.42;;
6348;SDS011;3207;42.648;23.406;2023-03-14T12:34:26;4.18;;;2.63;;
6348;SDS011;3207;42.648;23.406;2023-03-14T12:36:58;8.35;;;2.63;;
6348;SDS011;3207;42.648;23.406;2023-03-14T12:39:34;4.53;;;2.85;;
6348;SDS011;3207;42.648;23.406;2023-03-14T12:42:11;7.70;;;2.65;;
6348;SDS011;3207;42.648;23.406;2023-03-14T12:44:40;2.78;;;2.55;;
6348;SDS011;3207;42.648;23.406;2023-03-14T12:50:19;2.85;;;2.08;;
6348;SDS011;3207;42.648;23.406;2023-03-14T12:53:00;2.97;;;1.35;;
6348;SDS011;3207;42.648;23.406;2023-03-14T12:55:44;1.80;;;1.42;;
6348;SDS011;3207;42.648;23.406;2023-03-14T12:58:17;2.38;;;1.38;;
6348;SDS011;3207;42.648;23.406;2023-03-14T13:00:54;2.88;;;1.58;;
6348;SDS011;3207;42.648;23.406;2023-03-14T13:03:25;2.67;;;1.30;;
6348;SDS011;3207;42.648;23.406;2023-03-14T13:06:02;2.83;;;1.15;;
6348;SDS011;3207;42.648;23.406;2023-03-14T13:08:37;3.95;;;2.22;;
6348;SDS011;3207;42.648;23.406;2023-03-14T13:11:08;5.85;;;1.92;;
6348;SDS011;3207;42.648;23.406;2023-03-14T13:13:41;1.90;;;1.65;;
6348;SDS011;3207;42.648;23.406;2023-03-14T13:16:12;5.32;;;1.90;;
6348;SDS011;3207;42.648;23.406;2023-03-14T13:18:45;2.45;;;1.77;;
6348;SDS011;3207;42.648;23.406;2023-03-14T13:21:14;1.80;;;1.70;;
6348;SDS011;3207;42.648;23.406;2023-03-14T13:23:57;3.05;;;1.73;;
6348;SDS011;3207;42.648;23.406;2023-03-14T13:26:25;3.70;;;1.63;;
6348;SDS011;3207;42.648;23.406;2023-03-14T13:29:00;2.42;;;1.50;;
6348;SDS011;3207;42.648;23.406;2023-03-14T13:31:34;2.85;;;1.40;;
6348;SDS011;3207;42.648;23.406;2023-03-14T13:34:05;2.20;;;1.73;;
6348;SDS011;3207;42.648;23.406;2023-03-14T13:36:36;1.67;;;1.55;;
6348;SDS011;3207;42.648;23.406;2023-03-14T13:39:06;6.22;;;1.92;;
6348;SDS011;3207;42.648;23.406;2023-03-14T13:41:38;2.78;;;2.00;;
6348;SDS011;3207;42.648;23.406;2023-03-14T13:44:06;6.18;;;2.70;;
6348;SDS011;3207;42.648;23.406;2023-03-14T13:46:35;3.67;;;2.25;;
6348;SDS011;3207;42.648;23.406;2023-03-14T13:49:05;2.55;;;2.28;;
6348;SDS011;3207;42.648;23.406;2023-03-14T13:51:37;2.88;;;2.20;;
6348;SDS011;3207;42.648;23.406;2023-03-14T13:54:11;4.18;;;2.80;;
6348;SDS011;3207;42.648;23.406;2023-03-14T13:56:39;5.22;;;2.78;;
6348;SDS011;3207;42.648;23.406;2023-03-14T13:59:20;3.70;;;2.40;;
6348;SDS011;3207;42.648;23.406;2023-03-14T14:01:48;8.35;;;2.38;;
6348;SDS011;3207;42.648;23.406;2023-03-14T14:04:17;2.35;;;2.15;;
6348;SDS011;3207;42.648;23.406;2023-03-14T14:06:47;3.17;;;2.50;;
6348;SDS011;3207;42.648;23.406;2023-03-14T14:09:17;7.22;;;2.58;;
6348;SDS011;3207;42.648;23.406;2023-03-14T14:11:47;2.45;;;2.22;;
6348;SDS011;3207;42.648;23.406;2023-03-14T14:14:19;3.53;;;2.70;;
6348;SDS011;3207;42.648;23.406;2023-03-14T14:16:50;3.70;;;2.60;;
6348;SDS011;3207;42.648;23.406;2023-03-14T14:19:19;5.43;;;2.67;;
6348;SDS011;3207;42.648;23.406;2023-03-14T14:21:49;3.45;;;2.67;;
6348;SDS011;3207;42.648;23.406;2023-03-14T14:24:16;4.93;;;3.00;;
6348;SDS011;3207;42.648;23.406;2023-03-14T14:26:46;6.47;;;3.72;;
6348;SDS011;3207;42.648;23.406;2023-03-14T14:29:21;4.88;;;3.53;;
6348;SDS011;3207;42.648;23.406;2023-03-14T14:31:59;3.95;;;3.08;;
6348;SDS011;3207;42.648;23.406;2023-03-14T14:34:32;6.00;;;2.85;;
6348;SDS011;3207;42.648;23.406;2023-03-14T14:37:13;4.32;;;3.13;;
6348;SDS011;3207;42.648;23.406;2023-03-14T14:39:45;6.38;;;3.38;;
6348;SDS011;3207;42.648;23.406;2023-03-14T14:42:13;4.60;;;2.92;;
6348;SDS011;3207;42.648;23.406;2023-03-14T14:44:42;5.15;;;3.25;;
6348;SDS011;3207;42.648;23.406;2023-03-14T14:47:12;7.40;;;3.47;;
6348;SDS011;3207;42.648;23.406;2023-03-14T14:49:41;4.00;;;3.60;;
6348;SDS011;3207;42.648;23.406;2023-03-14T14:52:09;3.58;;;3.17;;
6348;SDS011;3207;42.648;23.406;2023-03-14T14:54:42;3.00;;;2.70;;
6348;SDS011;3207;42.648;23.406;2023-03-14T14:57:17;4.50;;;3.75;;
6348;SDS011;3207;42.648;23.406;2023-03-14T14:59:47;3.40;;;2.83;;
6348;SDS011;3207;42.648;23.406;2023-03-14T15:02:28;5.60;;;3.55;;
6348;SDS011;3207;42.648;23.406;2023-03-14T15:04:58;4.07;;;3.25;;
6348;SDS011;3207;42.648;23.406;2023-03-14T15:07:25;3.78;;;3.47;;
6348;SDS011;3207;42.648;23.406;2023-03-14T15:09:52;6.13;;;3.65;;
6348;SDS011;3207;42.648;23.406;2023-03-14T15:12:19;3.85;;;3.42;;
6348;SDS011;3207;42.648;23.406;2023-03-14T15:14:47;4.13;;;2.78;;